createdAt,value
2017-04-05T12:06:30.156Z,265
2017-04-05T12:11:30.011Z,320
2017-04-05T12:16:30.068Z,375
2017-04-05T12:21:29.999Z,395
2017-04-05T12:26:30.138Z,270
2017-04-05T12:31:30.090Z,275
2017-04-05T12:36:29.864Z,325
2017-04-05T12:41:29.869Z,310
2017-04-05T12:46:29.866Z,350
2017-04-05T12:51:29.828Z,280
2017-04-05T12:56:29.817Z,315
2017-04-05T13:01:29.276Z,375
2017-04-05T13:06:29.509Z,255
2017-04-05T13:11:29.812Z,300
2017-04-05T13:16:29.805Z,225
2017-04-05T13:21:29.803Z,310
2017-04-05T13:26:29.813Z,280
2017-04-05T13:31:29.485Z,355
2017-04-05T13:36:29.789Z,300
2017-04-05T13:41:29.385Z,315
2017-04-05T13:46:29.472Z,310
2017-04-05T13:51:29.767Z,335
2017-04-05T13:56:29.769Z,230
2017-04-05T14:01:29.478Z,290
2017-04-05T14:06:29.439Z,365
2017-04-05T14:11:29.414Z,360
2017-04-05T14:16:29.417Z,345
2017-04-05T14:21:29.695Z,370
2017-04-05T14:26:29.683Z,255
2017-04-05T14:31:29.769Z,225
2017-04-05T14:36:29.768Z,255
2017-04-05T14:41:29.656Z,295
2017-04-05T14:46:29.635Z,360
2017-04-05T14:51:28.977Z,205
2017-04-05T14:56:29.409Z,105
2017-04-05T15:01:29.817Z,35
2017-04-05T15:06:29.565Z,35
2017-04-05T15:11:29.264Z,30
2017-04-05T15:16:29.541Z,45
2017-04-05T15:21:29.515Z,90
2017-04-05T15:26:29.491Z,220
2017-04-05T15:31:29.466Z,210
2017-04-05T15:36:29.482Z,200
2017-04-05T15:41:29.426Z,175
2017-04-05T15:46:29.401Z,145
2017-04-05T15:51:29.399Z,145
2017-04-05T15:56:29.066Z,150
2017-04-05T16:01:29.345Z,130
2017-04-05T16:06:29.013Z,115
2017-04-05T16:11:29.370Z,105
2017-04-05T16:16:29.289Z,110
2017-04-05T16:21:29.273Z,110
2017-04-05T16:26:29.257Z,120
2017-04-05T16:31:29.275Z,125
2017-04-05T16:36:29.247Z,115
2017-04-05T16:41:29.193Z,105
2017-04-05T16:46:29.149Z,100
2017-04-05T16:51:29.136Z,90
2017-04-05T16:56:29.118Z,80
2017-04-05T17:01:29.100Z,85
2017-04-05T17:06:29.049Z,70
2017-04-05T17:11:28.975Z,70
2017-04-05T17:16:28.620Z,60
2017-04-05T17:21:28.905Z,55
2017-04-05T17:26:29.003Z,50
2017-04-05T17:31:28.721Z,40
2017-04-05T17:36:28.664Z,35
2017-04-05T17:41:28.582Z,35
2017-04-05T17:46:28.531Z,30
2017-04-05T17:51:28.229Z,25
2017-04-05T17:56:28.395Z,20
2017-04-05T18:01:28.331Z,15
2017-04-05T18:06:28.257Z,10
2017-04-05T18:11:28.235Z,10
2017-04-05T18:16:28.149Z,5
2017-04-05T18:21:28.167Z,0
2017-04-05T18:26:28.058Z,0
2017-04-05T18:31:27.630Z,0
2017-04-05T18:36:28.173Z,0
2017-04-05T18:41:27.836Z,0
2017-04-05T18:46:27.748Z,0
2017-04-05T18:51:27.378Z,0
2017-04-05T18:56:27.635Z,0
2017-04-05T19:01:27.576Z,0
2017-04-05T19:06:27.519Z,0
2017-04-05T19:11:27.445Z,0
2017-04-05T20:48:44.516Z,0
